Mobile, Arizona
Current Conditions -  °F | °C
As of 5:15 AM on Thursday 30 Oct 2014 (Local Time) from KCGZ Reporting Station
Clear Clear  
Wind Chill: 55°   Ceiling: Unl
Heat Index: 55°   Visibility: 10mi
Dew Point: 39°   Wind: 5mph
Humidity: 54%   Direction: 50°NE
Pressure: 30.01"   Gusts: NA
Location:  32.9044°N, 112.146°W
Report Text: KCGZ 301215Z AUTO 05004KT 10SM CLR 13/04 A3001 RMK AO1
Loading
Personal Weather Stations






























Interactive Weather Map New forecast layout! Learn more

10-Day Weather Forecast

Advertisements
Track Severe Weather on mobile